Time;durP1;ratioP1;P1;durP2;ratioP2;P2;SDS_P1;SDS_P2;PMS_P1;PMS_P2;Temp;Humidity;BMP_temperature;BMP_pressure;BME280_temperature;BME280_humidity;BME280_pressure;Samples;Min_cycle;Max_cycle;Signal;HPM_P1;HPM_P2
2022/07/31 00:02:03;;;;;;;7.25;2.28;;;24.70;70.50;;;;;;5026438;28;20028;-88
2022/07/31 00:04:30;;;;;;;6.63;2.30;;;24.70;70.70;;;;;;5042228;28;20024;-87
2022/07/31 00:06:56;;;;;;;5.00;2.20;;;24.60;70.70;;;;;;5042286;28;20108;-87
2022/07/31 00:09:23;;;;;;;3.78;2.03;;;24.60;70.80;;;;;;5057732;28;20115;-88
2022/07/31 00:11:48;;;;;;;6.20;2.25;;;24.60;71.10;;;;;;5041834;28;20035;-88
2022/07/31 00:14:14;;;;;;;3.38;2.03;;;24.60;71.30;;;;;;5044786;28;20012;-88
2022/07/31 00:16:40;;;;;;;5.32;1.80;;;24.50;71.30;;;;;;5044984;28;20461;-88
2022/07/31 00:19:06;;;;;;;5.70;2.30;;;24.50;71.40;;;;;;5053188;28;20123;-88
2022/07/31 00:21:31;;;;;;;5.78;2.30;;;24.50;71.30;;;;;;5042543;28;20032;-88
2022/07/31 00:24:19;;;;;;;4.63;2.17;;;24.50;71.40;;;;;;5055088;28;20029;-87
2022/07/31 00:27:28;;;;;;;5.68;2.05;;;24.50;71.60;;;;;;5039330;28;20025;-88
2022/07/31 00:29:54;;;;;;;5.55;2.63;;;24.40;71.50;;;;;;5054634;28;20482;-88
2022/07/31 00:32:19;;;;;;;4.38;2.30;;;24.40;71.50;;;;;;5048471;28;20063;-87
2022/07/31 00:34:45;;;;;;;5.72;1.90;;;24.40;71.50;;;;;;5032856;28;20457;-88
2022/07/31 00:37:11;;;;;;;6.30;2.72;;;24.30;71.60;;;;;;5044412;28;20040;-88
2022/07/31 00:39:37;;;;;;;6.78;2.22;;;24.30;71.90;;;;;;5031344;28;20035;-88
2022/07/31 00:42:04;;;;;;;3.53;2.20;;;24.30;72.10;;;;;;5024288;28;20017;-88
2022/07/31 00:44:30;;;;;;;5.55;2.50;;;24.20;72.00;;;;;;5058277;28;20485;-87
2022/07/31 00:46:55;;;;;;;3.45;2.00;;;24.20;72.10;;;;;;5021812;28;20021;-87
2022/07/31 00:49:21;;;;;;;4.07;2.20;;;24.20;72.20;;;;;;5037459;28;20099;-88
2022/07/31 00:51:47;;;;;;;5.18;2.40;;;24.20;72.40;;;;;;5019279;28;20025;-87
2022/07/31 00:54:13;;;;;;;6.25;2.88;;;24.20;72.40;;;;;;5038166;28;20045;-87
2022/07/31 00:56:38;;;;;;;4.57;2.25;;;24.20;72.50;;;;;;5051561;28;20044;-87
2022/07/31 00:59:04;;;;;;;3.47;2.20;;;24.20;72.70;;;;;;5037677;28;20025;-87
2022/07/31 01:01:31;;;;;;;5.32;2.30;;;24.10;72.90;;;;;;5049796;28;20377;-87
2022/07/31 01:03:57;;;;;;;5.07;2.10;;;24.10;73.20;;;;;;5054753;28;20528;-87
2022/07/31 01:06:22;;;;;;;5.15;2.25;;;24.10;73.30;;;;;;5045500;28;20021;-87
2022/07/31 01:08:48;;;;;;;5.43;2.20;;;24.10;73.20;;;;;;5044862;28;20108;-87
2022/07/31 01:11:43;;;;;;;4.55;2.38;;;24.00;73.30;;;;;;5040906;28;20474;-87
2022/07/31 01:14:09;;;;;;;6.82;2.67;;;24.00;73.70;;;;;;5066773;28;20433;-88
2022/07/31 01:16:39;;;;;;;7.45;2.72;;;23.90;73.80;;;;;;5033204;28;20036;-87
2022/07/31 01:19:20;;;;;;;3.83;2.40;;;23.90;73.90;;;;;;5068764;28;20017;-87
2022/07/31 01:22:02;;;;;;;3.72;2.60;;;23.80;74.20;;;;;;5057976;28;20028;-87
2022/07/31 01:24:27;;;;;;;5.97;2.45;;;23.80;75.10;;;;;;5040507;28;20074;-88
2022/07/31 01:26:55;;;;;;;6.43;2.72;;;23.80;74.70;;;;;;5055305;28;20021;-88
2022/07/31 01:29:48;;;;;;;4.30;2.65;;;23.70;74.80;;;;;;5057272;28;20017;-88
2022/07/31 01:32:40;;;;;;;6.07;2.95;;;23.70;75.00;;;;;;5074732;28;20424;-88
2022/07/31 01:35:14;;;;;;;3.83;2.55;;;23.70;75.20;;;;;;5043429;28;20032;-87
2022/07/31 01:37:43;;;;;;;5.00;2.58;;;23.70;75.60;;;;;;5065264;28;20043;-87
2022/07/31 01:40:15;;;;;;;4.10;2.45;;;23.60;75.80;;;;;;5062145;28;20417;-87
2022/07/31 01:42:47;;;;;;;4.10;2.30;;;23.60;76.00;;;;;;5053618;28;20225;-88
2022/07/31 01:45:14;;;;;;;5.78;2.50;;;23.60;76.20;;;;;;5065471;28;20035;-88
2022/07/31 01:47:42;;;;;;;5.45;2.60;;;23.60;76.40;;;;;;5057133;28;20466;-87
2022/07/31 01:50:09;;;;;;;5.53;2.55;;;23.50;76.60;;;;;;5040265;28;20025;-87
2022/07/31 01:52:38;;;;;;;6.72;2.53;;;23.50;76.80;;;;;;5053645;28;20025;-87
2022/07/31 01:55:05;;;;;;;5.35;2.75;;;23.50;77.00;;;;;;5077018;28;20024;-87
2022/07/31 01:57:33;;;;;;;3.80;2.35;;;23.50;77.20;;;;;;5055896;28;20104;-87
2022/07/31 02:00:01;;;;;;;5.20;2.47;;;23.40;77.40;;;;;;5028571;28;20456;-87
2022/07/31 02:02:29;;;;;;;4.60;2.53;;;23.40;77.60;;;;;;5056400;28;20028;-88
2022/07/31 02:04:56;;;;;;;6.75;2.40;;;23.40;77.80;;;;;;5036727;28;20028;-88
2022/07/31 02:07:25;;;;;;;5.50;2.90;;;23.40;78.00;;;;;;5051809;28;20032;-88
2022/07/31 02:09:52;;;;;;;5.93;2.50;;;23.40;78.20;;;;;;5037030;28;20033;-88
2022/07/31 02:12:19;;;;;;;5.05;2.50;;;23.30;78.30;;;;;;5050478;28;20086;-88
2022/07/31 02:14:45;;;;;;;3.65;2.30;;;23.30;78.60;;;;;;5045192;28;20414;-88
2022/07/31 02:17:12;;;;;;;6.18;2.42;;;23.30;78.90;;;;;;5090052;28;20532;-88
2022/07/31 02:19:40;;;;;;;4.80;2.85;;;23.30;79.20;;;;;;5053224;28;20035;-88
2022/07/31 02:22:06;;;;;;;5.15;2.80;;;23.20;79.40;;;;;;5036487;28;20120;-88
2022/07/31 02:24:33;;;;;;;5.03;2.40;;;23.20;79.50;;;;;;5036345;28;20041;-87
2022/07/31 02:27:01;;;;;;;6.30;2.70;;;23.20;79.60;;;;;;5065397;28;20028;-87
2022/07/31 02:29:29;;;;;;;4.97;2.60;;;23.10;79.70;;;;;;5048793;28;20475;-88
2022/07/31 02:31:57;;;;;;;3.88;2.60;;;23.10;79.90;;;;;;5063620;28;20083;-87
2022/07/31 02:34:24;;;;;;;4.70;2.60;;;23.10;80.20;;;;;;5055948;28;20096;-88
2022/07/31 02:36:53;;;;;;;5.72;2.65;;;23.10;80.40;;;;;;5085563;28;20032;-87
2022/07/31 02:39:20;;;;;;;5.63;2.40;;;23.10;80.70;;;;;;5062069;28;20020;-88
2022/07/31 02:41:46;;;;;;;6.70;2.83;;;23.00;80.90;;;;;;5052260;28;20153;-87
2022/07/31 02:44:14;;;;;;;4.43;2.20;;;23.00;81.20;;;;;;5044216;28;20025;-87
2022/07/31 02:46:43;;;;;;;4.18;2.50;;;23.00;81.40;;;;;;5036379;28;20044;-88
2022/07/31 02:49:12;;;;;;;5.57;3.03;;;23.00;81.70;;;;;;5059519;28;20028;-87
2022/07/31 02:51:41;;;;;;;5.68;2.58;;;23.00;81.90;;;;;;5039262;28;20017;-87
2022/07/31 02:54:07;;;;;;;4.20;2.63;;;23.00;82.00;;;;;;5044581;28;20373;-87
2022/07/31 02:56:33;;;;;;;6.18;2.80;;;22.90;81.90;;;;;;5035980;28;20033;-88
2022/07/31 02:58:59;;;;;;;4.30;2.70;;;22.90;82.20;;;;;;5044258;28;20106;-88
2022/07/31 03:01:25;;;;;;;6.07;2.75;;;22.90;82.40;;;;;;5049680;28;20029;-87
2022/07/31 03:03:51;;;;;;;6.28;2.67;;;22.90;82.40;;;;;;5030101;28;20044;-87
2022/07/31 03:06:17;;;;;;;3.63;2.50;;;22.80;82.80;;;;;;5052594;28;20369;-87
2022/07/31 03:08:43;;;;;;;4.95;2.92;;;22.80;82.90;;;;;;5041750;28;20024;-87
2022/07/31 03:11:09;;;;;;;5.10;2.78;;;22.80;83.00;;;;;;5055871;28;20028;-87
2022/07/31 03:16:59;;;;;;;4.88;2.70;;;22.80;83.20;;;;;;5088472;28;20038;-87
2022/07/31 03:19:26;;;;;;;7.20;3.05;;;22.70;83.30;;;;;;5050743;28;20461;-88
2022/07/31 03:21:52;;;;;;;7.50;3.30;;;22.70;83.40;;;;;;5063648;28;20043;-87
2022/07/31 03:24:18;;;;;;;5.60;2.85;;;22.60;83.40;;;;;;5030478;28;20024;-88
2022/07/31 03:26:44;;;;;;;7.93;2.78;;;22.60;83.60;;;;;;5059632;28;20123;-88
2022/07/31 03:29:09;;;;;;;6.50;2.80;;;22.60;83.80;;;;;;5035934;28;20071;-87
2022/07/31 03:31:35;;;;;;;5.72;2.70;;;22.60;84.00;;;;;;5069318;28;20036;-87
2022/07/31 03:34:00;;;;;;;5.90;3.65;;;22.50;84.70;;;;;;5047866;28;20069;-88
2022/07/31 03:36:26;;;;;;;5.90;3.38;;;22.50;84.80;;;;;;5052178;28;20370;-88
2022/07/31 03:38:53;;;;;;;5.45;3.28;;;22.50;85.40;;;;;;5028796;28;20028;-88
2022/07/31 03:41:19;;;;;;;4.95;3.35;;;22.50;85.70;;;;;;5077285;28;20369;-88
2022/07/31 03:43:46;;;;;;;8.27;4.25;;;22.50;85.90;;;;;;5074243;28;20020;-88
2022/07/31 03:46:14;;;;;;;7.72;3.90;;;22.40;85.90;;;;;;5055713;28;20040;-88
2022/07/31 03:48:40;;;;;;;6.72;3.83;;;22.40;85.90;;;;;;5057215;28;20103;-87
2022/07/31 03:51:06;;;;;;;8.25;4.22;;;22.40;86.00;;;;;;5032328;28;20550;-87
2022/07/31 03:53:32;;;;;;;6.60;4.28;;;22.40;86.20;;;;;;5029095;28;20025;-87
2022/07/31 03:55:59;;;;;;;8.32;4.70;;;22.30;86.30;;;;;;5031577;28;20029;-88
2022/07/31 03:58:25;;;;;;;7.88;5.47;;;22.30;86.50;;;;;;5047765;28;20025;-87
2022/07/31 04:00:51;;;;;;;8.68;5.05;;;22.30;86.60;;;;;;5053843;28;20431;-87
2022/07/31 04:03:17;;;;;;;6.40;4.93;;;22.20;86.70;;;;;;5059133;28;20082;-87
2022/07/31 04:05:43;;;;;;;7.90;5.78;;;22.20;86.90;;;;;;5045919;28;20037;-88
2022/07/31 04:08:09;;;;;;;8.73;5.68;;;22.10;86.90;;;;;;5097223;28;20013;-88
2022/07/31 04:10:36;;;;;;;9.48;6.05;;;22.10;87.20;;;;;;5052606;28;20021;-88
2022/07/31 04:13:05;;;;;;;7.72;5.70;;;22.10;87.50;;;;;;5063553;28;20012;-88
2022/07/31 04:15:31;;;;;;;14.75;5.78;;;22.10;87.70;;;;;;5079040;28;20052;-87
2022/07/31 04:17:57;;;;;;;10.00;6.10;;;22.10;87.80;;;;;;5060814;28;20050;-87
2022/07/31 04:20:23;;;;;;;7.45;5.80;;;22.10;87.90;;;;;;5042343;28;20090;-87
2022/07/31 04:22:49;;;;;;;7.47;5.75;;;22.10;88.00;;;;;;5042739;28;20028;-88
2022/07/31 04:25:15;;;;;;;8.82;5.70;;;22.10;88.00;;;;;;5058160;28;20039;-87
2022/07/31 04:27:41;;;;;;;10.93;6.05;;;22.00;88.00;;;;;;5043039;28;20024;-87
2022/07/31 04:30:07;;;;;;;6.28;5.30;;;22.00;88.30;;;;;;5070231;28;20465;-88
2022/07/31 04:32:37;;;;;;;9.38;5.43;;;22.00;88.40;;;;;;5058680;28;20032;-88
2022/07/31 04:35:04;;;;;;;11.73;6.10;;;22.00;88.70;;;;;;5058546;28;20008;-87
2022/07/31 04:37:30;;;;;;;8.32;5.57;;;22.00;88.90;;;;;;5058353;28;20032;-88
2022/07/31 04:39:56;;;;;;;8.07;5.78;;;22.00;89.10;;;;;;5058804;28;20412;-88
2022/07/31 04:42:22;;;;;;;7.93;5.43;;;22.00;89.40;;;;;;5028948;28;20033;-88
2022/07/31 04:44:47;;;;;;;8.40;5.57;;;22.00;89.70;;;;;;5059764;28;20033;-88
2022/07/31 04:47:13;;;;;;;8.05;5.70;;;21.90;89.90;;;;;;5038951;28;20488;-88
2022/07/31 04:49:39;;;;;;;10.95;5.82;;;21.90;90.10;;;;;;5072881;28;20500;-88
2022/07/31 04:52:05;;;;;;;10.13;5.60;;;21.90;90.10;;;;;;5040520;28;20040;-88
2022/07/31 04:54:32;;;;;;;9.77;6.03;;;21.80;90.20;;;;;;5069628;28;20083;-88
2022/07/31 04:56:58;;;;;;;10.32;5.47;;;21.90;90.30;;;;;;5042160;28;20025;-88
2022/07/31 04:59:24;;;;;;;10.02;5.47;;;21.80;90.40;;;;;;5058360;28;20027;-88
2022/07/31 05:01:50;;;;;;;9.32;5.53;;;21.80;90.50;;;;;;5046779;28;20027;-87
2022/07/31 05:04:16;;;;;;;9.82;5.88;;;21.80;90.60;;;;;;5067611;28;20021;-88
2022/07/31 05:06:45;;;;;;;9.85;5.95;;;21.80;90.70;;;;;;5058414;28;20461;-89
2022/07/31 05:09:16;;;;;;;10.93;5.97;;;21.80;90.90;;;;;;5057679;28;20465;-88
2022/07/31 05:11:42;;;;;;;8.00;6.15;;;21.80;91.00;;;;;;5057873;28;20170;-88
2022/07/31 05:14:09;;;;;;;11.77;5.97;;;21.80;91.20;;;;;;5057662;28;20020;-88
2022/07/31 05:16:36;;;;;;;13.18;6.68;;;21.80;91.30;;;;;;5027242;28;20023;-88
2022/07/31 05:19:06;;;;;;;12.05;6.43;;;21.70;91.40;;;;;;5040917;28;20025;-87
2022/07/31 05:21:31;;;;;;;11.82;6.00;;;21.70;91.60;;;;;;5044916;28;20108;-88
2022/07/31 05:27:19;;;;;;;9.20;6.40;;;21.70;92.00;;;;;;5085871;28;20039;-88
2022/07/31 05:29:45;;;;;;;10.73;7.00;;;21.70;92.80;;;;;;5030179;28;20024;-88
2022/07/31 05:32:11;;;;;;;10.10;7.45;;;21.70;93.00;;;;;;5044129;28;20028;-88
2022/07/31 05:34:36;;;;;;;17.35;7.13;;;21.70;93.00;;;;;;5041992;28;20029;-88
2022/07/31 05:37:02;;;;;;;11.23;8.13;;;21.70;93.20;;;;;;5044101;28;20036;-88
2022/07/31 05:39:28;;;;;;;12.70;7.72;;;21.60;93.20;;;;;;5073434;28;20122;-88
2022/07/31 05:41:54;;;;;;;9.48;6.90;;;21.60;93.30;;;;;;5037373;28;20812;-88
2022/07/31 05:44:20;;;;;;;13.05;7.78;;;21.50;93.40;;;;;;5040338;28;20021;-88
2022/07/31 05:46:46;;;;;;;12.45;8.05;;;21.50;93.60;;;;;;5077295;28;20028;-88
2022/07/31 05:49:11;;;;;;;13.10;8.10;;;21.60;93.90;;;;;;5044098;28;20385;-88
2022/07/31 05:51:37;;;;;;;9.85;7.60;;;21.60;93.70;;;;;;5057093;28;20029;-88
2022/07/31 05:54:03;;;;;;;11.23;8.18;;;21.50;93.80;;;;;;5040418;28;20025;-88
2022/07/31 05:56:29;;;;;;;11.38;8.30;;;21.50;93.90;;;;;;5054385;28;20025;-88
2022/07/31 05:58:54;;;;;;;12.18;8.25;;;21.50;93.90;;;;;;5030758;28;20478;-88
2022/07/31 06:01:20;;;;;;;13.02;8.98;;;21.50;93.90;;;;;;5018688;28;20501;-88
2022/07/31 06:03:45;;;;;;;14.57;9.20;;;21.50;93.80;;;;;;5060229;28;20027;-88
2022/07/31 06:06:11;;;;;;;12.35;8.93;;;21.50;93.80;;;;;;5025258;23;20069;-88
2022/07/31 06:11:59;;;;;;;10.25;8.30;;;21.50;93.80;;;;;;5000068;28;20378;-88
2022/07/31 06:14:25;;;;;;;13.65;9.43;;;21.50;94.00;;;;;;4996928;28;20100;-88
2022/07/31 06:16:51;;;;;;;12.18;8.90;;;21.40;94.00;;;;;;4971527;28;20029;-88
2022/07/31 06:19:19;;;;;;;12.52;8.68;;;21.40;94.00;;;;;;4987542;28;20021;-88
2022/07/31 06:21:45;;;;;;;11.02;9.02;;;21.40;94.00;;;;;;5010584;28;20068;-87
2022/07/31 06:24:10;;;;;;;12.60;9.40;;;21.40;94.10;;;;;;4996909;28;20052;-87
2022/07/31 06:26:36;;;;;;;14.07;10.57;;;21.30;94.20;;;;;;4974678;28;20479;-87
2022/07/31 06:29:03;;;;;;;13.98;9.73;;;21.30;94.30;;;;;;4996689;28;20175;-88
2022/07/31 06:31:28;;;;;;;12.45;9.27;;;21.30;94.40;;;;;;4996667;28;20030;-88
2022/07/31 06:33:54;;;;;;;11.85;9.77;;;21.30;94.50;;;;;;5000120;28;20487;-88
2022/07/31 06:36:20;;;;;;;14.32;11.43;;;21.30;94.50;;;;;;5016240;28;20084;-87
2022/07/31 06:38:45;;;;;;;13.30;9.90;;;21.20;94.60;;;;;;4985832;28;20028;-87
2022/07/31 06:41:43;;;;;;;13.68;9.50;;;21.20;94.70;;;;;;4999873;28;20073;-87
2022/07/31 06:43:57;;;;;;;12.55;10.05;;;21.20;94.80;;;;;;5003226;28;20038;-88
2022/07/31 06:46:51;;;;;;;13.70;10.82;;;21.20;95.20;;;;;;4968538;28;20037;-87
2022/07/31 06:52:39;;;;;;;16.58;10.48;;;21.20;95.30;;;;;;5017597;28;20029;-88
2022/07/31 06:55:06;;;;;;;14.65;10.27;;;21.20;95.40;;;;;;5013195;28;20022;-87
2022/07/31 06:57:32;;;;;;;14.05;11.32;;;21.20;95.80;;;;;;4996195;28;20030;-87
2022/07/31 07:03:20;;;;;;;13.77;11.30;;;21.10;96.10;;;;;;5010327;28;20032;-87
2022/07/31 07:05:45;;;;;;;13.98;11.40;;;21.00;96.20;;;;;;4979868;28;20363;-87
2022/07/31 07:08:11;;;;;;;16.08;11.30;;;21.00;96.40;;;;;;4996982;28;20072;-87
2022/07/31 07:10:37;;;;;;;12.70;10.30;;;21.00;96.50;;;;;;4994367;28;20407;-87
2022/07/31 07:13:02;;;;;;;12.98;10.95;;;21.00;96.60;;;;;;4985816;28;20065;-87
2022/07/31 07:15:28;;;;;;;13.15;10.70;;;21.00;96.70;;;;;;4995804;28;20033;-87
2022/07/31 07:17:54;;;;;;;12.52;10.23;;;21.00;96.80;;;;;;4981570;28;20122;-87
2022/07/31 07:20:20;;;;;;;13.30;10.57;;;21.00;96.90;;;;;;4994063;28;20033;-87
2022/07/31 07:22:45;;;;;;;13.85;10.57;;;21.00;97.10;;;;;;4979852;28;20030;-87
2022/07/31 07:25:11;;;;;;;11.48;9.52;;;21.00;97.20;;;;;;4994422;28;20029;-86
2022/07/31 07:27:37;;;;;;;13.18;10.25;;;21.00;97.50;;;;;;4995710;28;20022;-87
2022/07/31 07:30:03;;;;;;;13.77;10.60;;;21.00;97.40;;;;;;4995862;28;20041;-87
2022/07/31 07:32:29;;;;;;;11.45;9.52;;;21.00;97.40;;;;;;4996037;28;20018;-87
2022/07/31 07:34:55;;;;;;;13.90;10.35;;;21.00;97.50;;;;;;4996048;28;20036;-88
2022/07/31 07:37:23;;;;;;;14.13;9.70;;;21.00;97.70;;;;;;4997563;28;20077;-87
2022/07/31 07:39:48;;;;;;;16.00;10.40;;;21.00;97.80;;;;;;5006715;28;20492;-87
2022/07/31 07:42:14;;;;;;;12.68;10.10;;;21.00;97.90;;;;;;5011156;28;20036;-87
2022/07/31 07:44:40;;;;;;;11.10;9.48;;;21.10;98.00;;;;;;4999180;28;20083;-87
2022/07/31 07:47:05;;;;;;;13.65;8.93;;;21.10;98.10;;;;;;4995948;28;20387;-86
2022/07/31 07:49:40;;;;;;;11.82;8.70;;;21.00;98.30;;;;;;4985037;28;20026;-87
2022/07/31 07:52:06;;;;;;;12.60;8.93;;;21.10;98.40;;;;;;5015467;28;20475;-87
2022/07/31 07:54:32;;;;;;;10.82;8.70;;;21.10;98.70;;;;;;4977997;28;20069;-87
2022/07/31 07:56:57;;;;;;;11.65;8.98;;;21.00;98.80;;;;;;4990073;28;20030;-87
2022/07/31 07:59:23;;;;;;;9.82;8.02;;;21.10;98.90;;;;;;4981764;28;20034;-88
2022/07/31 08:01:49;;;;;;;13.77;9.10;;;21.10;99.00;;;;;;5001532;28;20021;-87
2022/07/31 08:04:14;;;;;;;9.75;7.95;;;21.10;99.00;;;;;;4988041;28;20080;-87
2022/07/31 08:06:41;;;;;;;12.27;8.90;;;21.20;99.20;;;;;;4996112;28;20053;-89
2022/07/31 08:09:07;;;;;;;14.13;9.02;;;21.20;99.30;;;;;;5016012;28;20045;-88
2022/07/31 08:11:33;;;;;;;15.32;9.98;;;21.20;99.40;;;;;;4993496;28;20022;-88
2022/07/31 08:14:08;;;;;;;12.15;8.90;;;21.20;99.40;;;;;;5000165;28;20029;-88
2022/07/31 08:16:34;;;;;;;14.85;9.43;;;21.20;99.50;;;;;;4999095;28;20022;-88
2022/07/31 08:18:59;;;;;;;12.55;9.07;;;21.10;99.50;;;;;;5000359;28;20490;-88
2022/07/31 08:21:25;;;;;;;13.60;9.30;;;21.10;99.70;;;;;;5000969;28;20030;-88
2022/07/31 08:23:51;;;;;;;14.77;9.93;;;21.10;99.80;;;;;;5005077;28;20026;-88
2022/07/31 08:26:17;;;;;;;14.38;8.73;;;21.20;99.90;;;;;;5001408;28;20034;-88
2022/07/31 08:28:43;;;;;;;12.45;9.38;;;21.20;99.90;;;;;;5003393;28;20030;-88
2022/07/31 08:31:09;;;;;;;13.82;10.50;;;21.20;99.90;;;;;;5016492;28;20029;-84
2022/07/31 08:33:34;;;;;;;14.75;9.40;;;21.20;99.90;;;;;;4998510;28;20018;-83
2022/07/31 08:36:00;;;;;;;12.30;9.65;;;21.20;99.90;;;;;;4998123;28;20395;-83
2022/07/31 08:38:27;;;;;;;9.77;8.50;;;21.20;99.90;;;;;;4998499;28;20057;-83
2022/07/31 08:40:53;;;;;;;14.45;8.75;;;21.20;99.90;;;;;;4986034;28;20456;-83
2022/07/31 08:43:18;;;;;;;12.75;8.60;;;21.30;99.90;;;;;;4998694;28;20100;-83
2022/07/31 08:45:46;;;;;;;11.70;8.45;;;21.30;99.90;;;;;;4992110;28;20037;-84
2022/07/31 08:48:13;;;;;;;10.52;8.55;;;21.40;99.90;;;;;;4995428;28;20019;-83
2022/07/31 08:50:42;;;;;;;9.88;8.57;;;21.50;99.90;;;;;;4998191;28;20049;-83
2022/07/31 08:53:11;;;;;;;13.68;9.27;;;21.50;99.90;;;;;;4996885;28;20018;-83
2022/07/31 08:55:38;;;;;;;11.70;8.93;;;21.50;99.90;;;;;;4999325;28;20013;-83
2022/07/31 08:58:03;;;;;;;15.05;9.82;;;21.60;99.90;;;;;;4997755;28;20041;-83
2022/07/31 09:00:29;;;;;;;12.35;9.27;;;21.60;99.90;;;;;;4997824;28;20026;-83
2022/07/31 09:02:55;;;;;;;12.07;9.02;;;21.70;99.90;;;;;;4998004;28;20033;-83
2022/07/31 09:05:23;;;;;;;12.52;9.25;;;21.70;99.90;;;;;;4992560;28;20518;-83
2022/07/31 09:07:49;;;;;;;13.38;9.40;;;21.80;99.90;;;;;;4999138;28;20052;-83
2022/07/31 09:10:22;;;;;;;11.90;9.70;;;21.80;99.90;;;;;;5010361;28;20101;-83
2022/07/31 09:12:48;;;;;;;14.23;9.73;;;21.90;99.90;;;;;;5006135;28;20026;-83
2022/07/31 09:15:26;;;;;;;13.88;9.10;;;21.90;99.70;;;;;;5013588;28;20077;-84
2022/07/31 09:18:20;;;;;;;13.00;8.43;;;22.00;99.60;;;;;;5008418;28;20030;-83
2022/07/31 09:21:05;;;;;;;10.98;7.45;;;22.00;99.40;;;;;;4996432;28;20041;-83
2022/07/31 09:23:31;;;;;;;11.68;7.85;;;22.00;99.30;;;;;;5017374;28;20153;-83
2022/07/31 09:26:03;;;;;;;14.80;8.50;;;22.10;99.20;;;;;;5003907;28;20030;-84
2022/07/31 09:28:35;;;;;;;12.80;8.98;;;22.10;99.10;;;;;;5023668;28;20025;-84
2022/07/31 09:31:02;;;;;;;13.20;9.10;;;22.10;98.90;;;;;;5002841;28;20017;-84
2022/07/31 09:33:29;;;;;;;11.48;7.90;;;22.10;98.80;;;;;;4990030;28;20026;-83
2022/07/31 09:35:56;;;;;;;12.00;8.75;;;22.20;98.90;;;;;;4999154;28;20454;-83
2022/07/31 09:38:33;;;;;;;14.50;8.93;;;22.20;99.00;;;;;;4972746;28;20030;-87
2022/07/31 09:41:19;;;;;;;12.15;9.02;;;22.20;99.20;;;;;;5008297;28;20029;-86
2022/07/31 09:43:59;;;;;;;13.10;9.75;;;22.20;99.50;;;;;;4996898;28;20395;-86
2022/07/31 09:46:26;;;;;;;12.73;9.57;;;22.30;99.80;;;;;;4987376;28;20029;-86
2022/07/31 09:48:59;;;;;;;16.17;9.30;;;22.30;99.90;;;;;;4981881;28;20419;-86
2022/07/31 09:51:25;;;;;;;11.75;9.32;;;22.30;99.90;;;;;;4992056;28;20529;-86
2022/07/31 09:53:56;;;;;;;12.75;9.80;;;22.30;99.90;;;;;;4978251;28;20076;-86
2022/07/31 09:56:32;;;;;;;18.20;10.02;;;22.30;99.90;;;;;;4995993;28;20033;-85
2022/07/31 09:58:58;;;;;;;13.65;9.80;;;22.30;99.90;;;;;;4994010;28;20026;-86
2022/07/31 10:01:25;;;;;;;14.70;10.95;;;22.30;99.90;;;;;;4981381;28;20071;-86
2022/07/31 10:03:52;;;;;;;14.40;10.63;;;22.30;99.90;;;;;;4980502;28;20040;-85
2022/07/31 10:06:19;;;;;;;15.82;11.38;;;22.40;99.90;;;;;;4977131;28;20038;-87
2022/07/31 10:08:46;;;;;;;17.55;12.40;;;22.30;99.90;;;;;;4987273;28;20026;-88
2022/07/31 10:11:14;;;;;;;18.02;11.65;;;22.30;99.90;;;;;;5037244;28;20046;-87
2022/07/31 10:13:48;;;;;;;16.80;11.30;;;22.30;99.90;;;;;;4997015;28;20027;-89
2022/07/31 10:16:14;;;;;;;15.90;12.55;;;22.30;99.90;;;;;;5042691;28;20025;-86
2022/07/31 10:18:45;;;;;;;19.45;12.52;;;22.30;99.90;;;;;;4980016;28;20030;-86
2022/07/31 10:24:18;;;;;;;13.75;11.77;;;22.30;99.90;;;;;;5015191;28;19913;-86
2022/07/31 10:26:44;;;;;;;17.48;12.43;;;22.20;99.90;;;;;;4989532;28;20037;-87
2022/07/31 10:29:10;;;;;;;16.95;12.65;;;22.20;99.90;;;;;;5029114;28;20018;-87
2022/07/31 10:31:36;;;;;;;17.88;13.00;;;22.30;99.90;;;;;;4998656;28;20026;-86
2022/07/31 10:34:02;;;;;;;17.58;13.05;;;22.30;99.90;;;;;;4996299;28;20026;-86
2022/07/31 10:36:33;;;;;;;16.75;13.00;;;22.30;99.90;;;;;;4995910;28;20026;-87
2022/07/31 10:39:28;;;;;;;16.10;13.23;;;22.30;99.90;;;;;;4997586;28;20026;-87
2022/07/31 10:42:27;;;;;;;17.30;13.43;;;22.30;99.90;;;;;;4996088;28;20038;-87
2022/07/31 10:45:10;;;;;;;17.20;13.73;;;22.40;99.90;;;;;;5021894;28;20063;-87
2022/07/31 10:47:35;;;;;;;17.08;14.13;;;22.30;99.90;;;;;;5004800;28;20022;-87
2022/07/31 10:50:02;;;;;;;15.57;13.65;;;22.30;99.90;;;;;;5001529;28;20491;-87
2022/07/31 10:52:33;;;;;;;17.77;14.25;;;22.30;99.90;;;;;;5032063;28;20017;-87
2022/07/31 10:55:02;;;;;;;15.68;13.98;;;22.30;99.90;;;;;;4987397;28;20026;-87
2022/07/31 10:57:33;;;;;;;18.25;15.10;;;22.40;99.90;;;;;;5006642;28;20113;-87
2022/07/31 11:00:16;;;;;;;18.05;14.38;;;22.40;99.90;;;;;;4994206;28;20088;-86
2022/07/31 11:02:42;;;;;;;17.95;14.38;;;22.40;99.90;;;;;;4995823;28;20034;-88
2022/07/31 11:05:10;;;;;;;15.82;14.13;;;22.40;99.90;;;;;;4998696;28;20037;-87
2022/07/31 11:07:36;;;;;;;17.05;14.30;;;22.40;99.90;;;;;;5023063;28;20046;-87
2022/07/31 11:10:12;;;;;;;16.10;14.13;;;22.40;99.90;;;;;;4995410;28;20026;-86
2022/07/31 11:12:38;;;;;;;16.38;14.48;;;22.50;99.90;;;;;;5007934;28;20042;-86
2022/07/31 11:15:15;;;;;;;17.45;15.02;;;22.50;99.90;;;;;;5007164;28;20384;-85
2022/07/31 11:17:41;;;;;;;17.65;14.50;;;22.50;99.90;;;;;;4993899;28;20030;-85
2022/07/31 11:20:23;;;;;;;17.45;15.68;;;22.50;99.90;;;;;;5009154;28;20032;-86
2022/07/31 11:26:12;;;;;;;17.88;15.43;;;22.50;99.90;;;;;;5014259;28;20486;-85
2022/07/31 11:28:37;;;;;;;17.13;13.82;;;22.50;99.90;;;;;;4988162;28;20161;-85
2022/07/31 11:31:59;;;;;;;16.20;14.50;;;22.50;99.90;;;;;;4990142;28;20057;-85
2022/07/31 11:37:49;;;;;;;15.48;13.73;;;22.60;99.90;;;;;;5010998;28;20029;-86
2022/07/31 11:40:15;;;;;;;15.77;14.02;;;22.60;99.90;;;;;;5005970;28;20169;-85
2022/07/31 11:42:44;;;;;;;17.75;15.38;;;22.70;99.90;;;;;;5005502;28;20105;-86
2022/07/31 11:45:11;;;;;;;15.17;13.57;;;22.70;99.90;;;;;;5017535;28;20439;-86
2022/07/31 11:47:41;;;;;;;15.05;13.45;;;22.70;99.90;;;;;;5006361;28;20041;-86
2022/07/31 11:50:09;;;;;;;15.15;13.55;;;22.70;99.90;;;;;;4998402;28;20356;-86
2022/07/31 11:52:35;;;;;;;15.00;12.68;;;22.80;99.90;;;;;;4998574;28;20441;-85
2022/07/31 11:55:12;;;;;;;14.57;13.13;;;22.80;99.90;;;;;;4999401;28;20479;-85
2022/07/31 11:57:39;;;;;;;13.93;12.52;;;22.80;99.90;;;;;;5011971;28;20025;-85
2022/07/31 12:00:13;;;;;;;14.73;11.82;;;22.80;99.90;;;;;;4999904;28;20502;-85
2022/07/31 12:02:44;;;;;;;12.70;11.43;;;22.90;99.90;;;;;;4998225;28;20030;-85
2022/07/31 12:09:09;;;;;;;13.32;10.02;;;23.00;99.90;;;;;;5008257;28;20061;-85
2022/07/31 12:11:35;;;;;;;12.18;10.63;;;23.10;99.90;;;;;;5016384;28;20506;-87
2022/07/31 12:14:01;;;;;;;18.15;10.00;;;23.20;99.90;;;;;;5018739;28;20025;-87
2022/07/31 12:16:39;;;;;;;10.45;9.35;;;23.20;99.90;;;;;;5042464;28;20104;-87
2022/07/31 12:19:05;;;;;;;10.40;9.38;;;23.20;99.90;;;;;;5018375;28;20455;-87
2022/07/31 12:21:36;;;;;;;12.10;9.32;;;23.30;99.90;;;;;;5034810;28;20014;-87
2022/07/31 12:24:38;;;;;;;11.20;9.95;;;23.30;99.90;;;;;;5008365;28;20018;-85
2022/07/31 12:27:05;;;;;;;10.35;9.15;;;23.40;99.90;;;;;;5036606;28;20435;-87
2022/07/31 12:29:34;;;;;;;9.20;7.90;;;23.40;99.90;;;;;;5014824;28;20018;-88
2022/07/31 12:32:00;;;;;;;10.98;7.68;;;23.40;99.90;;;;;;5006440;28;20084;-86
2022/07/31 12:34:37;;;;;;;8.68;7.28;;;23.50;99.90;;;;;;4997602;28;20034;-86
2022/07/31 12:37:09;;;;;;;9.52;7.57;;;23.50;99.90;;;;;;5011615;28;20017;-85
2022/07/31 12:39:38;;;;;;;8.00;7.10;;;23.50;99.90;;;;;;5014862;28;20026;-85
2022/07/31 12:42:05;;;;;;;10.40;6.55;;;23.60;99.90;;;;;;5028882;28;20030;-86
2022/07/31 12:44:30;;;;;;;12.20;6.43;;;23.60;99.90;;;;;;5023722;28;20088;-86
2022/07/31 12:46:56;;;;;;;7.72;5.88;;;23.60;99.90;;;;;;5031884;28;20017;-85
2022/07/31 12:49:22;;;;;;;7.05;5.60;;;23.60;99.90;;;;;;5014714;28;20389;-85
2022/07/31 12:51:47;;;;;;;8.23;6.03;;;23.60;99.90;;;;;;5014650;28;20463;-85
2022/07/31 12:54:17;;;;;;;6.97;5.43;;;23.70;99.90;;;;;;5017184;28;20029;-83
2022/07/31 12:56:43;;;;;;;8.52;5.40;;;23.70;99.90;;;;;;5017780;28;20546;-84
2022/07/31 12:59:10;;;;;;;7.15;5.60;;;23.70;99.90;;;;;;5030715;28;20034;-83
2022/07/31 13:01:54;;;;;;;7.35;5.10;;;23.80;99.90;;;;;;5029926;28;20033;-85
2022/07/31 13:04:19;;;;;;;9.75;5.85;;;23.90;99.90;;;;;;4990537;28;20029;-85
2022/07/31 13:06:47;;;;;;;10.00;5.85;;;23.90;99.90;;;;;;5034506;28;20048;-86
2022/07/31 13:09:12;;;;;;;9.80;5.43;;;23.90;99.50;;;;;;5022534;28;20439;-85
2022/07/31 13:11:38;;;;;;;8.05;5.35;;;23.90;99.90;;;;;;4995444;28;20133;-85
2022/07/31 13:14:04;;;;;;;9.63;5.45;;;24.00;99.60;;;;;;4995501;28;20035;-84
2022/07/31 13:16:30;;;;;;;9.05;5.97;;;24.00;99.30;;;;;;4977754;28;20034;-85